createdAt,value
2022-07-29T00:00:59.483Z,16.18
2022-07-29T00:03:27.145Z,15.98
2022-07-29T00:05:56.087Z,15.84
2022-07-29T00:08:23.499Z,16.29
2022-07-29T00:10:51.461Z,16.85
2022-07-29T00:13:32.536Z,16.87
2022-07-29T00:16:04.587Z,16.67
2022-07-29T00:18:35.013Z,16.53
2022-07-29T00:21:03.816Z,16.39
2022-07-29T00:23:36.469Z,16.26
2022-07-29T00:26:06.742Z,16.66
2022-07-29T00:28:34.583Z,17.16
2022-07-29T00:31:02.411Z,17.21
2022-07-29T00:33:30.941Z,17.04
2022-07-29T00:35:58.697Z,16.83
2022-07-29T00:38:26.255Z,16.63
2022-07-29T00:40:54.123Z,16.46
2022-07-29T00:43:21.681Z,16.30
2022-07-29T00:45:49.664Z,16.78
2022-07-29T00:48:21.613Z,17.29
2022-07-29T00:50:50.253Z,17.31
2022-07-29T00:53:17.754Z,17.11
2022-07-29T00:55:45.108Z,16.85
2022-07-29T00:58:13.902Z,16.68
2022-07-29T01:00:44.903Z,16.52
2022-07-29T01:03:13.832Z,16.41
2022-07-29T01:05:51.054Z,16.91
2022-07-29T01:08:19.928Z,17.50
2022-07-29T01:10:47.916Z,17.55
2022-07-29T01:13:15.581Z,17.33
2022-07-29T01:15:49.192Z,17.09
2022-07-29T01:18:22.159Z,16.84
2022-07-29T01:20:58.699Z,16.63
2022-07-29T01:23:48.477Z,16.46
2022-07-29T01:26:45.302Z,17.07
2022-07-29T01:29:36.020Z,17.56
2022-07-29T01:32:27.918Z,17.50
2022-07-29T01:35:17.120Z,17.26
2022-07-29T01:37:46.351Z,16.98
2022-07-29T01:40:44.499Z,16.75
2022-07-29T01:43:15.397Z,16.59
2022-07-29T01:45:46.200Z,17.11
2022-07-29T01:48:24.170Z,17.54
2022-07-29T01:51:12.929Z,17.49
2022-07-29T01:53:55.641Z,17.24
2022-07-29T01:56:24.022Z,16.98
2022-07-29T01:58:51.784Z,16.83
2022-07-29T02:01:20.944Z,16.66
2022-07-29T02:03:48.654Z,16.91
2022-07-29T02:06:20.915Z,17.44
2022-07-29T02:08:50.731Z,17.46
2022-07-29T02:11:19.834Z,17.30
2022-07-29T02:13:53.832Z,17.04
2022-07-29T02:16:25.069Z,16.78
2022-07-29T02:18:53.772Z,16.53
2022-07-29T02:21:23.991Z,16.41
2022-07-29T02:23:54.816Z,16.82
2022-07-29T02:26:23.301Z,17.22
2022-07-29T02:28:55.783Z,17.33
2022-07-29T02:31:25.479Z,17.13
2022-07-29T02:33:53.593Z,16.79
2022-07-29T02:36:22.652Z,16.61
2022-07-29T02:38:53.286Z,16.36
2022-07-29T02:41:23.591Z,16.22
2022-07-29T02:43:55.685Z,16.68
2022-07-29T02:46:34.731Z,17.16
2022-07-29T02:49:16.253Z,17.28
2022-07-29T02:51:58.717Z,17.10
2022-07-29T02:54:33.117Z,16.79
2022-07-29T02:57:02.214Z,16.45
2022-07-29T02:59:29.491Z,16.14
2022-07-29T03:01:57.058Z,15.98
2022-07-29T03:04:26.339Z,16.51
2022-07-29T03:06:53.894Z,17.05
2022-07-29T03:09:22.569Z,16.99
2022-07-29T03:11:51.058Z,16.84
2022-07-29T03:14:21.521Z,16.63
2022-07-29T03:16:49.549Z,16.40
2022-07-29T03:19:17.548Z,16.29
2022-07-29T03:21:44.871Z,16.70
2022-07-29T03:24:25.644Z,17.20
2022-07-29T03:26:53.099Z,17.22
2022-07-29T03:29:20.658Z,17.07
2022-07-29T03:31:50.437Z,16.77
2022-07-29T03:34:18.028Z,16.50
2022-07-29T03:36:51.136Z,16.35
2022-07-29T03:39:22.057Z,16.34
2022-07-29T03:41:54.020Z,16.87
2022-07-29T03:44:21.293Z,17.48
2022-07-29T03:46:49.815Z,17.52
2022-07-29T03:49:18.150Z,17.40
2022-07-29T03:51:46.816Z,17.06
2022-07-29T03:54:18.029Z,16.90
2022-07-29T03:56:48.042Z,16.69
2022-07-29T03:59:16.364Z,16.73
2022-07-29T04:01:43.667Z,17.28
2022-07-29T04:04:12.968Z,17.85
2022-07-29T04:06:42.415Z,18.08
2022-07-29T04:09:10.059Z,18.11
2022-07-29T04:12:02.383Z,17.95
2022-07-29T04:14:28.338Z,17.89
2022-07-29T04:16:57.041Z,17.98
2022-07-29T04:19:25.095Z,17.96
2022-07-29T04:21:54.644Z,17.85
2022-07-29T04:24:23.501Z,18.47
2022-07-29T04:26:57.255Z,18.84
2022-07-29T04:29:24.752Z,19.07
2022-07-29T04:31:52.219Z,19.11
2022-07-29T04:34:20.912Z,19.20
2022-07-29T04:36:48.488Z,18.99
2022-07-29T04:39:20.661Z,18.91
2022-07-29T04:41:54.920Z,18.82
2022-07-29T04:44:28.702Z,18.51
2022-07-29T04:46:57.994Z,18.27
2022-07-29T04:49:26.626Z,18.30
2022-07-29T04:51:54.090Z,18.58
2022-07-29T04:54:23.081Z,19.28
2022-07-29T04:56:53.715Z,19.59
2022-07-29T04:59:21.784Z,19.65
2022-07-29T05:01:50.619Z,19.58
2022-07-29T05:04:20.757Z,19.51
2022-07-29T05:06:50.201Z,19.49
2022-07-29T05:09:17.977Z,19.19
2022-07-29T05:11:45.837Z,19.15
2022-07-29T05:14:16.004Z,19.15
2022-07-29T05:16:44.741Z,19.03
2022-07-29T05:19:15.889Z,19.09
2022-07-29T05:21:46.004Z,19.84
2022-07-29T05:24:18.601Z,20.68
2022-07-29T05:26:46.547Z,20.74
2022-07-29T05:29:43.707Z,20.76
2022-07-29T05:32:04.812Z,20.66
2022-07-29T05:34:32.607Z,20.41
2022-07-29T05:37:00.957Z,20.48
2022-07-29T05:39:46.606Z,20.61
2022-07-29T05:42:15.625Z,20.90
2022-07-29T05:44:44.773Z,21.18
2022-07-29T05:47:12.393Z,21.38
2022-07-29T05:49:40.045Z,21.59
2022-07-29T05:52:10.164Z,21.68
2022-07-29T05:54:37.519Z,21.51
2022-07-29T05:57:06.005Z,21.50
2022-07-29T05:59:36.969Z,21.60
2022-07-29T06:02:05.936Z,21.73
2022-07-29T06:04:34.331Z,21.82
2022-07-29T06:07:02.502Z,22.00
2022-07-29T06:09:36.008Z,22.17
2022-07-29T06:12:04.481Z,22.30
2022-07-29T06:14:36.051Z,22.40
2022-07-29T06:17:04.601Z,22.59
2022-07-29T06:19:36.060Z,22.73
2022-07-29T06:22:05.967Z,22.79
2022-07-29T06:24:34.448Z,23.09
2022-07-29T06:27:03.955Z,23.23
2022-07-29T06:29:34.006Z,23.45
2022-07-29T06:32:05.117Z,23.36
2022-07-29T06:34:32.570Z,23.14
2022-07-29T06:37:00.035Z,23.21
2022-07-29T06:39:28.620Z,23.13
2022-07-29T06:41:57.606Z,23.16
2022-07-29T06:44:28.238Z,23.28
2022-07-29T06:46:58.255Z,23.45
2022-07-29T06:49:26.996Z,23.61
2022-07-29T06:51:57.284Z,23.68
2022-07-29T06:54:25.029Z,23.70
2022-07-29T06:56:52.794Z,23.68
2022-07-29T06:59:24.466Z,23.68
2022-07-29T07:01:56.188Z,23.67
2022-07-29T07:04:24.279Z,23.61
2022-07-29T07:06:52.721Z,23.59
2022-07-29T07:09:22.062Z,23.59
2022-07-29T07:11:51.160Z,23.45
2022-07-29T07:14:19.491Z,23.31
2022-07-29T07:16:47.526Z,23.21
2022-07-29T07:19:15.504Z,23.16
2022-07-29T07:21:43.238Z,23.07
2022-07-29T07:24:10.695Z,23.15
2022-07-29T07:26:40.928Z,23.27
2022-07-29T07:29:08.683Z,23.19
2022-07-29T07:31:38.776Z,23.18
2022-07-29T07:34:06.984Z,23.35
2022-07-29T07:36:34.535Z,23.51
2022-07-29T07:39:02.100Z,23.61
2022-07-29T07:41:32.499Z,23.50
2022-07-29T07:44:00.900Z,23.28
2022-07-29T07:46:30.001Z,23.19
2022-07-29T07:48:59.811Z,23.17
2022-07-29T07:51:28.395Z,23.13
2022-07-29T07:53:55.661Z,23.16
2022-07-29T07:56:24.943Z,23.20
2022-07-29T07:58:53.963Z,23.23
2022-07-29T08:01:23.585Z,23.27
2022-07-29T08:03:52.849Z,23.27
2022-07-29T08:06:20.342Z,23.30
2022-07-29T08:08:47.863Z,23.29
2022-07-29T08:11:15.525Z,23.23
2022-07-29T08:13:43.719Z,23.24
2022-07-29T08:16:16.192Z,23.37
2022-07-29T08:18:45.024Z,23.49
2022-07-29T08:21:14.864Z,23.58
2022-07-29T08:23:54.548Z,23.69
2022-07-29T08:26:27.506Z,23.74
2022-07-29T08:28:55.171Z,23.79
2022-07-29T08:31:22.948Z,23.84
2022-07-29T08:33:50.696Z,23.76
2022-07-29T08:36:19.744Z,23.81
2022-07-29T08:38:47.455Z,23.91
2022-07-29T08:41:15.115Z,23.79
2022-07-29T08:43:42.785Z,23.65
2022-07-29T08:46:10.268Z,23.99
2022-07-29T08:48:41.556Z,24.18
2022-07-29T08:51:09.488Z,23.95
2022-07-29T08:53:39.262Z,23.98
2022-07-29T08:56:06.412Z,23.75
2022-07-29T08:58:36.751Z,23.48
2022-07-29T09:01:07.531Z,23.95
2022-07-29T09:03:45.531Z,24.22
2022-07-29T09:06:18.257Z,23.88
2022-07-29T09:08:46.025Z,23.17
2022-07-29T09:11:14.402Z,23.19
2022-07-29T09:13:41.793Z,23.63
2022-07-29T09:16:10.779Z,23.78
2022-07-29T09:18:42.619Z,23.51
2022-07-29T09:21:32.714Z,24.00
2022-07-29T09:24:12.861Z,24.40
2022-07-29T09:26:41.954Z,24.54
2022-07-29T09:29:16.116Z,24.27
2022-07-29T09:31:50.990Z,24.50
2022-07-29T09:34:25.633Z,24.39
2022-07-29T09:36:54.254Z,24.51
2022-07-29T09:39:32.208Z,24.23
2022-07-29T09:42:02.781Z,24.33
2022-07-29T09:44:59.889Z,24.57
2022-07-29T09:47:49.862Z,24.97
2022-07-29T09:50:24.603Z,25.24
2022-07-29T09:52:52.777Z,25.64
2022-07-29T09:55:20.264Z,25.92
2022-07-29T09:57:47.695Z,26.21
2022-07-29T10:00:18.305Z,25.93
2022-07-29T10:02:47.852Z,25.74
2022-07-29T10:05:23.578Z,25.58
2022-07-29T10:07:57.659Z,26.11
2022-07-29T10:10:27.774Z,26.53
2022-07-29T10:13:07.236Z,26.63
2022-07-29T10:15:41.369Z,26.53
2022-07-29T10:18:09.025Z,26.14
2022-07-29T10:20:41.308Z,26.35
2022-07-29T10:23:09.609Z,26.80
2022-07-29T10:25:38.157Z,26.81
2022-07-29T10:28:06.229Z,27.02
2022-07-29T10:30:40.649Z,27.86
2022-07-29T10:33:25.261Z,28.52
2022-07-29T10:36:13.143Z,28.91
2022-07-29T10:39:06.428Z,28.89
2022-07-29T10:41:47.401Z,28.98
2022-07-29T10:44:19.306Z,29.21
2022-07-29T10:46:51.403Z,29.84
2022-07-29T10:49:27.434Z,30.31
2022-07-29T10:51:56.889Z,30.42
2022-07-29T10:54:42.479Z,29.94
2022-07-29T10:57:15.445Z,29.46
2022-07-29T11:00:09.857Z,28.97
2022-07-29T11:02:43.776Z,29.12
2022-07-29T11:05:15.599Z,28.71
2022-07-29T11:08:19.695Z,29.06
2022-07-29T11:10:49.523Z,29.60
2022-07-29T11:13:48.996Z,30.19
2022-07-29T11:16:25.190Z,29.95
2022-07-29T11:19:11.605Z,30.43
2022-07-29T11:21:54.761Z,30.94
2022-07-29T11:24:30.286Z,31.35
2022-07-29T11:27:09.614Z,31.16
2022-07-29T11:29:49.797Z,31.35
2022-07-29T11:32:38.604Z,31.60
2022-07-29T11:35:37.919Z,31.93
2022-07-29T11:38:28.335Z,31.64
2022-07-29T11:41:18.404Z,30.66
2022-07-29T11:43:47.317Z,30.88
2022-07-29T11:49:44.520Z,31.17
2022-07-29T11:52:12.337Z,31.39
2022-07-29T11:54:58.264Z,30.95
2022-07-29T11:57:36.346Z,30.81
2022-07-29T12:00:26.560Z,30.69
2022-07-29T12:02:56.166Z,30.52
2022-07-29T12:05:36.371Z,30.50
2022-07-29T12:07:02.023Z,30.78
2022-07-29T12:08:12.713Z,30.36
2022-07-29T12:10:44.923Z,29.86
2022-07-29T12:13:15.244Z,29.15
2022-07-29T12:16:00.093Z,29.10
2022-07-29T12:18:27.904Z,29.11
2022-07-29T12:20:59.637Z,28.85
2022-07-29T12:23:35.076Z,29.48
2022-07-29T12:26:07.246Z,29.72
2022-07-29T12:28:39.322Z,29.75
2022-07-29T12:31:14.364Z,29.45
2022-07-29T12:34:01.678Z,28.45
2022-07-29T12:36:29.434Z,28.19
2022-07-29T12:38:57.404Z,28.58
2022-07-29T12:41:24.967Z,28.65
2022-07-29T12:43:56.009Z,28.40
2022-07-29T12:46:24.265Z,28.12
2022-07-29T12:48:55.863Z,28.28
2022-07-29T12:51:37.480Z,28.37
2022-07-29T12:54:16.299Z,28.35
2022-07-29T12:56:45.139Z,28.34
2022-07-29T12:59:22.941Z,28.25
2022-07-29T13:02:00.401Z,28.20
2022-07-29T13:04:33.520Z,27.99
2022-07-29T13:07:07.642Z,28.03
2022-07-29T13:09:39.699Z,28.31
2022-07-29T13:12:11.562Z,28.50
2022-07-29T13:14:44.892Z,28.29
2022-07-29T13:17:17.343Z,28.22
2022-07-29T13:19:48.574Z,28.25
2022-07-29T13:22:17.775Z,28.43
2022-07-29T13:24:49.942Z,28.30
2022-07-29T13:27:18.521Z,28.00
2022-07-29T13:29:45.776Z,28.02
2022-07-29T13:32:14.475Z,27.93
2022-07-29T13:34:44.484Z,27.69
2022-07-29T13:37:14.189Z,27.48
2022-07-29T13:39:42.476Z,27.18
2022-07-29T13:42:20.372Z,26.66
2022-07-29T13:44:51.716Z,26.52
2022-07-29T13:47:20.096Z,26.45
2022-07-29T13:49:49.089Z,26.29
2022-07-29T13:52:16.647Z,26.09
2022-07-29T13:54:44.438Z,25.99
2022-07-29T13:57:12.057Z,26.00
2022-07-29T13:59:40.864Z,25.94
2022-07-29T14:02:08.540Z,25.85
2022-07-29T14:04:35.846Z,25.73
2022-07-29T14:08:18.088Z,25.64
2022-07-29T14:10:45.852Z,25.48
2022-07-29T14:13:25.252Z,25.33
2022-07-29T14:15:53.371Z,25.20
2022-07-29T14:18:20.819Z,25.10
2022-07-29T14:20:48.071Z,25.05
2022-07-29T14:23:16.203Z,24.96
2022-07-29T14:25:44.483Z,24.88
2022-07-29T14:28:11.980Z,24.74
2022-07-29T14:30:42.412Z,24.36
2022-07-29T14:33:09.673Z,24.14
2022-07-29T14:35:37.013Z,24.21
2022-07-29T14:38:04.707Z,24.28
2022-07-29T14:40:33.234Z,24.27
2022-07-29T14:43:00.512Z,24.35
2022-07-29T14:45:29.641Z,24.36
2022-07-29T14:47:57.470Z,24.26
2022-07-29T14:50:31.368Z,23.99
2022-07-29T14:53:00.822Z,23.92
2022-07-29T14:55:28.246Z,23.79
2022-07-29T14:58:03.391Z,23.97
2022-07-29T15:00:38.209Z,24.11
2022-07-29T15:03:06.859Z,24.14
2022-07-29T15:05:38.760Z,23.98
2022-07-29T15:08:06.112Z,23.98
2022-07-29T15:10:33.470Z,23.79
2022-07-29T15:13:00.717Z,23.97
2022-07-29T15:15:28.686Z,24.04
2022-07-29T15:17:56.040Z,23.67
2022-07-29T15:20:27.437Z,23.51
2022-07-29T15:22:56.805Z,23.72
2022-07-29T15:25:24.925Z,23.72
2022-07-29T15:27:59.088Z,23.86
2022-07-29T15:30:33.661Z,23.67
2022-07-29T15:33:02.506Z,23.63
2022-07-29T15:35:29.747Z,23.78
2022-07-29T15:37:57.100Z,23.94
2022-07-29T15:40:24.454Z,24.26
2022-07-29T15:42:51.973Z,24.31
2022-07-29T15:45:19.279Z,24.05
2022-07-29T15:47:46.519Z,24.12
2022-07-29T15:50:17.089Z,23.85
2022-07-29T15:52:44.407Z,23.70
2022-07-29T15:55:11.757Z,23.54
2022-07-29T15:57:39.216Z,23.26
2022-07-29T16:00:07.595Z,23.19
2022-07-29T16:02:36.590Z,23.16
2022-07-29T16:05:04.556Z,23.20
2022-07-29T16:07:37.032Z,23.08
2022-07-29T16:10:04.958Z,23.17
2022-07-29T16:12:32.571Z,23.10
2022-07-29T16:15:00.047Z,23.04
2022-07-29T16:17:28.113Z,23.03
2022-07-29T16:19:55.958Z,22.91
2022-07-29T16:22:23.312Z,22.85
2022-07-29T16:24:50.671Z,22.84
2022-07-29T16:27:17.917Z,22.66
2022-07-29T16:29:47.321Z,22.62
2022-07-29T16:32:14.573Z,22.53
2022-07-29T16:34:49.820Z,22.46
2022-07-29T16:37:17.269Z,22.56
2022-07-29T16:39:44.625Z,22.40
2022-07-29T16:42:25.742Z,22.36
2022-07-29T16:45:01.758Z,22.36
2022-07-29T16:47:30.284Z,22.35
2022-07-29T16:49:57.599Z,22.44
2022-07-29T16:52:24.950Z,22.54
2022-07-29T16:54:53.462Z,22.65
2022-07-29T16:57:20.888Z,22.60
2022-07-29T16:59:50.351Z,22.66
2022-07-29T17:02:17.852Z,22.64
2022-07-29T17:04:45.520Z,22.66
2022-07-29T17:07:13.179Z,22.64
2022-07-29T17:09:40.434Z,22.60
2022-07-29T17:12:08.291Z,22.42
2022-07-29T17:14:35.650Z,22.49
2022-07-29T17:17:03.284Z,22.54
2022-07-29T17:19:34.047Z,22.46
2022-07-29T17:22:12.611Z,22.44
2022-07-29T17:24:44.970Z,22.52
2022-07-29T17:27:12.289Z,22.43
2022-07-29T17:29:39.648Z,22.46
2022-07-29T17:32:08.050Z,22.38
2022-07-29T17:34:39.484Z,22.38
2022-07-29T17:37:07.856Z,22.21
2022-07-29T17:39:36.029Z,22.20
2022-07-29T17:42:04.609Z,21.98
2022-07-29T17:44:36.075Z,21.93
2022-07-29T17:47:05.185Z,21.98
2022-07-29T17:49:33.226Z,21.97
2022-07-29T17:52:04.086Z,21.91
2022-07-29T17:54:33.238Z,21.84
2022-07-29T17:57:01.060Z,21.74
2022-07-29T17:59:28.696Z,21.63
2022-07-29T18:01:55.982Z,21.51
2022-07-29T18:04:23.909Z,21.39
2022-07-29T18:06:51.160Z,21.37
2022-07-29T18:09:18.825Z,21.29
2022-07-29T18:11:46.706Z,21.25
2022-07-29T18:14:14.249Z,21.21
2022-07-29T18:16:41.689Z,21.11
2022-07-29T18:19:09.061Z,20.93
2022-07-29T18:21:43.350Z,21.13
2022-07-29T18:24:19.642Z,21.48
2022-07-29T18:26:47.103Z,21.52
2022-07-29T18:29:14.356Z,21.56
2022-07-29T18:31:41.710Z,21.40
2022-07-29T18:34:10.862Z,21.23
2022-07-29T18:36:38.157Z,20.94
2022-07-29T18:39:05.434Z,20.81
2022-07-29T18:41:32.866Z,20.72
2022-07-29T18:44:00.159Z,20.59
2022-07-29T18:46:27.509Z,20.54
2022-07-29T18:48:55.948Z,20.60
2022-07-29T18:51:23.329Z,21.02
2022-07-29T18:53:50.561Z,21.61
2022-07-29T18:56:17.811Z,21.59
2022-07-29T18:58:45.067Z,21.42
2022-07-29T19:01:16.735Z,21.24
2022-07-29T19:03:44.485Z,21.20
2022-07-29T19:06:11.841Z,21.12
2022-07-29T19:08:41.207Z,20.95
2022-07-29T19:11:08.698Z,20.86
2022-07-29T19:13:37.598Z,20.77
2022-07-29T19:16:08.181Z,20.66
2022-07-29T19:18:35.382Z,20.59
2022-07-29T19:21:02.624Z,20.56
2022-07-29T19:23:30.082Z,20.95
2022-07-29T19:25:57.947Z,21.30
2022-07-29T19:28:25.819Z,21.35
2022-07-29T19:30:53.100Z,21.22
2022-07-29T19:33:21.355Z,21.19
2022-07-29T19:35:54.314Z,21.06
2022-07-29T19:38:22.420Z,20.85
2022-07-29T19:40:49.655Z,20.67
2022-07-29T19:43:50.722Z,20.57
2022-07-29T19:46:04.303Z,20.55
2022-07-29T19:48:31.789Z,20.52
2022-07-29T19:50:59.039Z,20.47
2022-07-29T19:53:26.395Z,20.88
2022-07-29T19:55:53.544Z,21.37
2022-07-29T19:58:22.509Z,21.41
2022-07-29T20:00:55.969Z,21.38
2022-07-29T20:03:23.397Z,21.25
2022-07-29T20:05:52.807Z,21.03
2022-07-29T20:08:20.164Z,20.89
2022-07-29T20:10:47.408Z,20.77
2022-07-29T20:13:14.797Z,20.68
2022-07-29T20:15:42.029Z,20.59
2022-07-29T20:18:09.364Z,20.51
2022-07-29T20:20:36.630Z,20.43
2022-07-29T20:23:04.181Z,20.38
2022-07-29T20:25:31.532Z,20.30
2022-07-29T20:27:58.990Z,20.20
2022-07-29T20:30:26.450Z,20.22
2022-07-29T20:32:57.614Z,20.19
2022-07-29T20:35:25.051Z,20.14
2022-07-29T20:37:56.481Z,20.15
2022-07-29T20:40:25.516Z,20.11
2022-07-29T20:42:54.192Z,20.10
2022-07-29T20:45:22.348Z,20.06
2022-07-29T20:47:51.210Z,20.58
2022-07-29T20:50:19.933Z,21.09
2022-07-29T20:52:47.518Z,21.13
2022-07-29T20:55:14.741Z,21.06
2022-07-29T20:57:43.809Z,20.90
2022-07-29T21:00:12.444Z,20.73
2022-07-29T21:02:39.855Z,20.67
2022-07-29T21:05:07.472Z,20.55
2022-07-29T21:07:34.704Z,20.47
2022-07-29T21:10:02.142Z,20.41
2022-07-29T21:12:30.438Z,20.33
2022-07-29T21:14:59.951Z,20.21
2022-07-29T21:17:27.428Z,20.15
2022-07-29T21:19:55.867Z,20.10
2022-07-29T21:22:23.420Z,20.09
2022-07-29T21:24:50.881Z,20.04
2022-07-29T21:27:38.127Z,20.03
2022-07-29T21:30:08.062Z,20.00
2022-07-29T21:32:35.446Z,19.95
2022-07-29T21:35:02.926Z,19.93
2022-07-29T21:37:42.817Z,19.89
2022-07-29T21:40:11.057Z,19.86
2022-07-29T21:42:38.405Z,19.83
2022-07-29T21:45:06.617Z,19.82
2022-07-29T21:47:33.936Z,19.77
2022-07-29T21:50:01.298Z,19.70
2022-07-29T21:52:28.874Z,19.66
2022-07-29T21:54:56.306Z,19.63
2022-07-29T21:57:23.665Z,19.58
2022-07-29T21:59:51.022Z,19.52
2022-07-29T22:02:18.311Z,19.98
2022-07-29T22:04:45.776Z,20.42
2022-07-29T22:07:13.385Z,20.53
2022-07-29T22:09:40.758Z,20.43
2022-07-29T22:12:08.200Z,20.23
2022-07-29T22:14:35.758Z,20.06
2022-07-29T22:17:03.419Z,19.90
2022-07-29T22:19:30.876Z,19.73
2022-07-29T22:21:58.349Z,19.67
2022-07-29T22:24:25.586Z,19.52
2022-07-29T22:26:52.841Z,19.36
2022-07-29T22:29:20.499Z,19.18
2022-07-29T22:31:47.752Z,18.99
2022-07-29T22:34:15.331Z,18.81
2022-07-29T22:36:43.999Z,19.18
2022-07-29T22:39:11.289Z,19.69
2022-07-29T22:41:42.913Z,19.73
2022-07-29T22:44:10.267Z,19.53
2022-07-29T22:46:37.747Z,19.28
2022-07-29T22:49:08.281Z,19.00
2022-07-29T22:51:36.221Z,18.73
2022-07-29T22:54:04.134Z,18.59
2022-07-29T22:56:31.437Z,18.43
2022-07-29T22:58:58.737Z,18.23
2022-07-29T23:01:37.465Z,18.07
2022-07-29T23:04:06.666Z,18.54
2022-07-29T23:06:34.164Z,19.03
2022-07-29T23:09:01.439Z,19.08
2022-07-29T23:11:28.773Z,18.89
2022-07-29T23:13:56.126Z,18.62
2022-07-29T23:16:26.441Z,18.34
2022-07-29T23:18:55.240Z,18.05
2022-07-29T23:21:22.703Z,17.78
2022-07-29T23:23:50.059Z,17.58
2022-07-29T23:26:17.410Z,17.93
2022-07-29T23:28:45.376Z,18.40
2022-07-29T23:31:13.899Z,18.38
2022-07-29T23:33:41.966Z,18.15
2022-07-29T23:36:09.282Z,17.93
2022-07-29T23:38:41.050Z,17.70
2022-07-29T23:41:10.065Z,17.48
2022-07-29T23:43:39.061Z,17.24
2022-07-29T23:46:06.743Z,17.03
2022-07-29T23:48:37.223Z,17.47
2022-07-29T23:51:04.470Z,17.99
2022-07-29T23:53:32.388Z,18.03
2022-07-29T23:55:59.792Z,17.90
2022-07-29T23:58:27.254Z,17.69
